Wauchula, Florida
Current Conditions -  °F | °C
As of 10:48 AM on Wednesday 28 Jan 2015 (Local Time) from KBOW Reporting Station
Clear Clear  
Wind Chill: 54°   Ceiling: Unl
Heat Index: 54°   Visibility: 10mi
Dew Point: 32°   Wind: 12mph
Humidity: 44%   Direction: 320°NW
Pressure: 30.25"   Gusts: NA
Location:  27.55°N, 81.81°W
Report Text: KBOW 281548Z 32010KT 10SM SKC 12/00 A3025
Loading
Personal Weather Stations






























Interactive Weather Map New forecast layout! Learn more

10-Day Weather Forecast

Advertisements
Track Severe Weather on mobile